cloudbaseCU.php : Version 1.5 - copyright 2013 Silver Acorn Limited
Date/Time : Sun, 25 Jul 2021 15:58:10 (Day)
Time Zone : Europe/London (GMT+1 hours)
INPUT ITEM: RAW DATA -> DERIVED
    Current temp : 22.8 -> 22.8 °C
    Dewpoint : 15.8 -> 15.8 °C
    Rain Fall : 0.0 -> 0.0 mm
    Barometer : 1011.3 -> 1011 hPa
    Humidity : 65 -> 65 %
    Wind Speed : 3 -> 3 mph
    Wind Dir : 111 -> 111 degrees
    Cloud Altitude : 2863 -> 2800 ft (AGL)
    Latitude : 55 -> N = Northern Hemisphere
    Season : -> Summer
    Moon Age : 16 -> 16 days
    Is daylight : 1 -> Day
    Realtime file Interval : 10 -> 10 Seconds
    Tag file time Interval : 5 -> 5 Minutes
CUMULUS CONDITIONS
    Cumulus conditions not in use
    Zambretti # : 2 -> 2
METAR CONDITONS - Metar Times UNC, Update Station times based on timezone setting
    $pathToMetFile : ./cache/
    Metar - Rawdata : 2021/07/25 14:50 EGAC 251450Z AUTO 02010KT 9999 FEW045/// 23/14 Q1010
    Metar - Trimmed : 251450Z AUTO 02010KT 9999 FEW045 23/14 Q1010
    Metar - Decoded : Not Raining; Partly Cloudy
    Now : 1627225089 seconds or Station Time of 15:58:10
    Metar report timestamp : 1627224600 seconds
    Age of File : 8.15 minutes
    When to update Metar : seconds (When station time ~ 01:00:00)
        (Metar report timestamp plus 39 mins refresh time)
    Next Download in : -27120418.15 Minutes (if  '-' then refresh page, if still '-' then download overdue!)
    Metar file : New File downloaded
    Note:- Metar updates are usually Hourly unless AUTO when they may update every 30 minutes
OUTPUT DATA

    $showAGLASL : true
Cloud Temp : 8 °C
Background image file name : ./images/cb/cb-bg-00sumd.png
    $useWXrain : true
    $tagint : 5
    Last rain : 43692 minutes ago
    $wxrain : false
"useWXrain" results :-
    No rain in last 5 minutes -> Not raining
SETTINGS
    $realtime : cloudbaseCU.txt
    $metarICAO : EGAC
    $pathToMetFile : ./cache/
    $tz : Europe/London - The setting in this script, may be overidden by the Saratoga SITE setting
    $pathToImages : ./images/cb/
    $pathToMoonImages : ./images/cb/moon/
    $translate : true
    $switchSeasons : true
    $showCldSource : true
    $showCloudTemp : true
    $showCaption : true
    $showMoon : true
    $showScale : true
    $showWinsock : false
    $showWindDir : false
    $showWindSpd : false
    $showTemp : false
    $showHumidity : false
    $showBaro : false
    $alwaysShowCloud : false
    $useCUHeight : false
    $getMetar : true
    $metarRefresh : true
    $useMetarAtNight : true
    $onlyUseMetar : true
    $reportMistAt : 25 ft
    $stationAltitude : 0 ft